首页
METAR-TAF:

METAR-TAF

机场 :

Marigot, 多米尼克

纬度: 15-32N, 经度: 061-18W, 海拔: 13米

当前天气观测

该预报发布于45分钟前的21:00 UTC
风速2节,风向多变
温度 25°C
湿度 100%
气压 1015 hPa
能见度10公里或以上
少量云层高于1800英尺
多云层高于3200英尺
少量云 , 积雨云.

METAR: TDPD 262100Z VRB02KT 9999 FEW018 BKN032 FEW///CB 25/25 Q1015

时间: 17:45 (21:45 UTC)

预报

该预报发布于4小时和45分钟前的17:00 UTC
预报有效从26日的 18点(UTC)到 27日的 18点(UTC)
风速3节,风向西转西北
能见度10公里或以上
散云层高于1600英尺
散云层高于3600英尺
短暂存在
从 26日的 18点(UTC)到 26日的 22点(UTC)
能見度: 5000
多云层高于1400英尺
少量云层高于1500英尺, 积雨云.
雷暴, 雨,

TAF: TDPD 261700Z 2618/2718 29003KT 9999 SCT016 SCT036 TEMPO 2618/2622 5000 TSRA BKN014 FEW015CB

超过4000个机场的气象观测和天气预报(METAR&TAF报告)。

可查询的气象台以黄色和红色小点在地图上表示。

将鼠标移到小点上方,可查看气象台名称。

然后点击查看天气观测和预报。

如需切换地图:点击带黑十字的绿色按钮放大地图;点击带横线的绿色按钮缩小地图;或者点击绿色箭头查看邻近地区的地图。


METAR-TAF: